createdAt,value
2019-03-03T00:01:34.649Z,56.37
2019-03-03T00:04:08.480Z,56.29
2019-03-03T00:06:40.113Z,56.56
2019-03-03T00:09:11.462Z,56.73
2019-03-03T00:11:47.641Z,56.69
2019-03-03T00:14:20.200Z,56.88
2019-03-03T00:16:53.292Z,57.19
2019-03-03T00:19:27.823Z,57.35
2019-03-03T00:21:58.970Z,57.04
2019-03-03T00:24:31.036Z,56.81
2019-03-03T00:27:05.360Z,56.82
2019-03-03T00:29:37.101Z,57.27
2019-03-03T00:32:09.964Z,57.19
2019-03-03T00:34:41.514Z,57.05
2019-03-03T00:37:17.958Z,57.30
2019-03-03T00:39:51.210Z,57.29
2019-03-03T00:42:24.438Z,57.29
2019-03-03T00:45:03.842Z,57.40
2019-03-03T00:47:48.879Z,57.17
2019-03-03T00:50:21.858Z,57.22
2019-03-03T00:53:06.668Z,57.40
2019-03-03T00:55:39.666Z,57.22
2019-03-03T00:58:12.562Z,57.40
2019-03-03T01:00:45.742Z,57.60
2019-03-03T01:03:28.395Z,57.50
2019-03-03T01:06:12.358Z,57.65
2019-03-03T01:08:45.275Z,57.89
2019-03-03T01:11:36.436Z,57.79
2019-03-03T01:14:12.041Z,57.83
2019-03-03T01:16:58.441Z,57.83
2019-03-03T01:19:31.549Z,57.85
2019-03-03T01:22:20.904Z,57.91
2019-03-03T01:24:58.610Z,58.04
2019-03-03T01:27:29.852Z,58.11
2019-03-03T01:30:01.102Z,58.11
2019-03-03T01:32:32.364Z,58.17
2019-03-03T01:35:06.511Z,58.33
2019-03-03T01:37:37.024Z,58.43
2019-03-03T01:40:12.779Z,58.32
2019-03-03T01:42:43.995Z,58.35
2019-03-03T01:45:16.366Z,58.71
2019-03-03T01:47:47.616Z,58.62
2019-03-03T01:50:18.912Z,58.48
2019-03-03T01:52:51.153Z,58.52
2019-03-03T01:55:22.583Z,58.44
2019-03-03T01:57:54.081Z,58.56
2019-03-03T02:00:28.973Z,58.78
2019-03-03T02:03:05.349Z,58.67
2019-03-03T02:05:38.945Z,58.78
2019-03-03T02:08:10.594Z,58.97
2019-03-03T02:10:41.865Z,59.32
2019-03-03T02:13:13.443Z,59.55
2019-03-03T02:15:44.856Z,59.29
2019-03-03T02:18:16.038Z,59.52
2019-03-03T02:20:47.456Z,59.75
2019-03-03T02:23:20.191Z,59.66
2019-03-03T02:25:51.887Z,59.97
2019-03-03T02:28:23.664Z,60.37
2019-03-03T02:30:55.194Z,60.61
2019-03-03T02:33:26.566Z,60.66
2019-03-03T02:35:58.221Z,60.45
2019-03-03T02:38:29.602Z,60.19
2019-03-03T02:41:00.834Z,59.81
2019-03-03T02:43:41.850Z,58.47
2019-03-03T02:46:21.125Z,58.16
2019-03-03T02:48:52.461Z,58.60
2019-03-03T02:51:23.934Z,58.58
2019-03-03T02:53:55.146Z,58.82
2019-03-03T02:56:26.531Z,59.20
2019-03-03T02:58:58.367Z,59.15
2019-03-03T03:01:33.940Z,59.44
2019-03-03T03:04:05.394Z,59.51
2019-03-03T03:06:41.186Z,59.73
2019-03-03T03:09:14.359Z,59.89
2019-03-03T03:11:49.800Z,59.98
2019-03-03T03:14:22.840Z,60.04
2019-03-03T03:16:55.840Z,60.26
2019-03-03T03:19:32.003Z,60.32
2019-03-03T03:22:05.089Z,60.38
2019-03-03T03:24:38.359Z,60.52
2019-03-03T03:27:17.426Z,60.72
2019-03-03T03:30:08.381Z,60.93
2019-03-03T03:32:41.640Z,60.93
2019-03-03T03:35:27.820Z,61.50
2019-03-03T03:38:17.143Z,62.06
2019-03-03T03:41:05.802Z,62.29
2019-03-03T03:43:46.727Z,62.80
2019-03-03T03:46:29.653Z,62.99
2019-03-03T03:49:06.908Z,63.35
2019-03-03T03:51:39.817Z,63.56
2019-03-03T03:54:14.164Z,63.94
2019-03-03T03:56:59.517Z,64.34
2019-03-03T03:59:36.762Z,64.58
2019-03-03T04:02:09.910Z,64.58
2019-03-03T04:04:45.957Z,64.92
2019-03-03T04:07:21.701Z,65.08
2019-03-03T04:10:00.586Z,65.08
2019-03-03T04:12:34.953Z,65.07
2019-03-03T04:15:10.398Z,64.80
2019-03-03T04:17:52.710Z,65.15
2019-03-03T04:20:25.815Z,65.32
2019-03-03T04:23:01.866Z,65.56
2019-03-03T04:25:34.741Z,65.73
2019-03-03T04:28:22.850Z,65.84
2019-03-03T04:31:01.912Z,66.14
2019-03-03T04:33:37.676Z,66.60
2019-03-03T04:36:25.603Z,66.53
2019-03-03T04:39:10.387Z,66.77
2019-03-03T04:41:46.433Z,67.04
2019-03-03T04:44:28.479Z,67.04
2019-03-03T04:47:07.460Z,66.79
2019-03-03T04:49:42.734Z,66.55
2019-03-03T04:52:22.454Z,66.47
2019-03-03T04:55:01.413Z,66.33
2019-03-03T04:57:34.665Z,66.25
2019-03-03T05:00:10.827Z,66.20
2019-03-03T05:03:00.210Z,66.19
2019-03-03T05:05:45.385Z,66.02
2019-03-03T05:08:21.847Z,66.52
2019-03-03T05:10:54.835Z,66.10
2019-03-03T05:13:30.437Z,66.14
2019-03-03T05:16:20.997Z,66.01
2019-03-03T05:18:56.908Z,65.78
2019-03-03T05:21:29.518Z,65.64
2019-03-03T05:24:01.788Z,65.37
2019-03-03T05:26:33.038Z,65.67
2019-03-03T05:29:04.587Z,65.53
2019-03-03T05:31:35.742Z,65.42
2019-03-03T05:34:07.194Z,65.42
2019-03-03T05:36:38.425Z,65.75
2019-03-03T05:39:10.004Z,64.22
2019-03-03T05:41:41.588Z,64.22
2019-03-03T05:44:13.091Z,63.74
2019-03-03T05:46:44.647Z,63.84
2019-03-03T05:49:15.864Z,63.56
2019-03-03T05:51:48.381Z,62.68
2019-03-03T05:54:20.007Z,62.97
2019-03-03T05:56:51.488Z,62.62
2019-03-03T05:59:23.042Z,62.17
2019-03-03T06:01:54.201Z,61.76
2019-03-03T06:04:25.844Z,61.78
2019-03-03T06:06:57.313Z,61.36
2019-03-03T06:09:29.356Z,60.98
2019-03-03T06:12:00.960Z,61.00
2019-03-03T06:14:35.227Z,60.47
2019-03-03T06:17:10.469Z,60.46
2019-03-03T06:19:43.051Z,60.40
2019-03-03T06:22:18.193Z,59.48
2019-03-03T06:24:50.626Z,59.87
2019-03-03T06:27:22.168Z,59.28
2019-03-03T06:29:53.670Z,58.89
2019-03-03T06:32:27.289Z,58.68
2019-03-03T06:34:58.244Z,58.43
2019-03-03T06:37:29.157Z,57.74
2019-03-03T06:40:00.612Z,56.57
2019-03-03T06:42:33.031Z,58.43
2019-03-03T06:45:11.126Z,57.25
2019-03-03T06:47:42.220Z,56.95
2019-03-03T06:50:16.150Z,56.31
2019-03-03T06:52:48.780Z,55.62
2019-03-03T06:55:20.217Z,55.62
2019-03-03T06:57:52.135Z,55.05
2019-03-03T07:00:30.856Z,54.40
2019-03-03T07:03:02.291Z,54.09
2019-03-03T07:05:35.321Z,54.94
2019-03-03T07:08:09.217Z,54.04
2019-03-03T07:10:41.171Z,52.83
2019-03-03T07:13:16.197Z,53.20
2019-03-03T07:15:50.534Z,51.97
2019-03-03T07:18:22.183Z,51.66
2019-03-03T07:20:54.646Z,50.30
2019-03-03T07:23:34.221Z,48.54
2019-03-03T07:26:06.225Z,49.86
2019-03-03T07:28:43.384Z,50.17
2019-03-03T07:31:20.702Z,50.28
2019-03-03T07:33:54.304Z,47.83
2019-03-03T07:36:26.310Z,46.75
2019-03-03T07:39:00.937Z,46.79
2019-03-03T07:41:34.120Z,46.28
2019-03-03T07:44:08.543Z,45.99
2019-03-03T07:46:44.149Z,46.14
2019-03-03T07:49:15.953Z,45.32
2019-03-03T07:51:57.464Z,46.13
2019-03-03T07:54:31.660Z,46.56
2019-03-03T07:57:04.648Z,45.71
2019-03-03T07:59:36.320Z,45.00
2019-03-03T08:02:07.777Z,44.70
2019-03-03T08:04:39.351Z,43.63
2019-03-03T08:07:12.200Z,42.95
2019-03-03T08:09:43.954Z,41.86
2019-03-03T08:12:20.115Z,40.92
2019-03-03T08:14:52.199Z,41.54
2019-03-03T08:17:23.325Z,41.30
2019-03-03T08:19:54.779Z,42.56
2019-03-03T08:22:26.220Z,41.39
2019-03-03T08:24:57.549Z,41.51
2019-03-03T08:27:28.826Z,40.69
2019-03-03T08:30:00.479Z,39.92
2019-03-03T08:32:32.145Z,38.91
2019-03-03T08:35:03.753Z,38.29
2019-03-03T08:37:34.947Z,38.22
2019-03-03T08:40:09.412Z,37.94
2019-03-03T08:42:45.119Z,38.33
2019-03-03T08:45:26.580Z,38.51
2019-03-03T08:48:01.229Z,38.61
2019-03-03T08:50:34.188Z,38.41
2019-03-03T08:53:17.371Z,35.91
2019-03-03T08:55:54.040Z,36.41
2019-03-03T08:58:28.020Z,36.09
2019-03-03T09:01:04.090Z,36.20
2019-03-03T09:03:39.949Z,37.17
2019-03-03T09:06:15.505Z,36.10
2019-03-03T09:08:51.197Z,36.16
2019-03-03T09:11:40.364Z,37.46
2019-03-03T09:14:17.114Z,36.57
2019-03-03T09:17:06.317Z,36.75
2019-03-03T09:19:55.652Z,35.77
2019-03-03T09:22:31.386Z,35.33
2019-03-03T09:25:27.145Z,35.76
2019-03-03T09:28:02.760Z,35.08
2019-03-03T09:30:52.433Z,35.58
2019-03-03T09:33:44.649Z,35.17
2019-03-03T09:36:19.439Z,35.04
2019-03-03T09:39:01.035Z,34.57
2019-03-03T09:41:52.573Z,35.12
2019-03-03T09:44:28.022Z,35.52
2019-03-03T09:47:03.659Z,34.80
2019-03-03T09:49:55.532Z,34.43
2019-03-03T09:52:28.530Z,34.95
2019-03-03T09:55:04.595Z,35.32
2019-03-03T09:57:48.555Z,35.10
2019-03-03T10:00:22.432Z,35.76
2019-03-03T10:02:59.118Z,35.19
2019-03-03T10:05:44.725Z,34.28
2019-03-03T10:08:17.950Z,34.53
2019-03-03T10:10:55.226Z,32.87
2019-03-03T10:13:37.550Z,33.19
2019-03-03T10:16:14.227Z,33.68
2019-03-03T10:19:07.323Z,33.85
2019-03-03T10:21:41.607Z,34.33
2019-03-03T10:24:26.347Z,34.14
2019-03-03T10:27:08.000Z,34.59
2019-03-03T10:29:47.745Z,33.86
2019-03-03T10:32:40.393Z,33.34
2019-03-03T10:35:13.699Z,31.87
2019-03-03T10:37:47.510Z,29.74
2019-03-03T10:40:22.160Z,29.40
2019-03-03T10:43:14.552Z,29.69
2019-03-03T10:45:56.739Z,28.69
2019-03-03T10:48:31.775Z,27.85
2019-03-03T10:51:13.198Z,28.39
2019-03-03T10:53:56.800Z,27.76
2019-03-03T10:56:43.033Z,26.09
2019-03-03T10:59:33.440Z,25.21
2019-03-03T11:02:16.408Z,25.75
2019-03-03T11:05:02.066Z,25.66
2019-03-03T11:07:35.405Z,25.55
2019-03-03T11:10:22.796Z,26.87
2019-03-03T11:12:56.385Z,27.25
2019-03-03T11:15:38.704Z,26.28
2019-03-03T11:18:22.416Z,26.42
2019-03-03T11:20:58.464Z,27.67
2019-03-03T11:23:46.831Z,26.83
2019-03-03T11:26:24.732Z,26.21
2019-03-03T11:29:05.792Z,24.91
2019-03-03T11:31:50.052Z,25.38
2019-03-03T11:34:38.146Z,25.50
2019-03-03T11:37:28.895Z,26.46
2019-03-03T11:40:19.183Z,25.88
2019-03-03T11:43:11.578Z,25.14
2019-03-03T11:45:54.870Z,24.72
2019-03-03T11:48:39.000Z,24.35
2019-03-03T11:51:28.174Z,24.08
2019-03-03T11:54:01.922Z,23.96
2019-03-03T11:56:42.554Z,23.28
2019-03-03T11:59:15.879Z,24.53
2019-03-03T12:02:07.272Z,24.71
2019-03-03T12:04:42.994Z,24.70
2019-03-03T12:07:25.349Z,24.52
2019-03-03T12:09:59.940Z,24.59
2019-03-03T12:12:33.164Z,24.59
2019-03-03T12:15:26.633Z,25.10
2019-03-03T12:18:07.087Z,24.39
2019-03-03T12:20:42.266Z,23.66
2019-03-03T12:23:17.127Z,23.78
2019-03-03T12:26:01.820Z,24.95
2019-03-03T12:28:41.242Z,24.84
2019-03-03T12:31:24.083Z,24.71
2019-03-03T12:34:03.104Z,25.10
2019-03-03T12:36:46.978Z,25.46
2019-03-03T12:39:20.037Z,25.44
2019-03-03T12:41:53.258Z,25.21
2019-03-03T12:44:32.577Z,25.46
2019-03-03T12:47:09.380Z,24.70
2019-03-03T12:49:49.974Z,25.17
2019-03-03T12:52:40.051Z,24.52
2019-03-03T12:55:18.212Z,25.50
2019-03-03T12:57:52.422Z,24.80
2019-03-03T13:00:45.418Z,25.17
2019-03-03T13:03:22.999Z,24.81
2019-03-03T13:06:11.636Z,24.75
2019-03-03T13:08:48.847Z,23.56
2019-03-03T13:11:26.049Z,24.29
2019-03-03T13:14:04.421Z,24.32
2019-03-03T13:16:43.483Z,24.23
2019-03-03T13:19:26.403Z,23.63
2019-03-03T13:22:06.568Z,24.92
2019-03-03T13:24:54.706Z,24.81
2019-03-03T13:27:34.110Z,25.95
2019-03-03T13:30:30.263Z,28.37
2019-03-03T13:33:20.968Z,29.18
2019-03-03T13:36:13.192Z,30.40
2019-03-03T13:38:51.095Z,31.04
2019-03-03T13:41:26.931Z,31.78
2019-03-03T13:43:58.391Z,32.05
2019-03-03T13:46:29.727Z,32.81
2019-03-03T13:49:04.286Z,32.97
2019-03-03T13:51:36.718Z,33.83
2019-03-03T13:54:08.922Z,33.62
2019-03-03T13:56:41.959Z,33.96
2019-03-03T13:59:22.867Z,34.23
2019-03-03T14:01:55.855Z,34.40
2019-03-03T14:04:28.137Z,34.44
2019-03-03T14:07:02.554Z,34.99
2019-03-03T14:09:35.535Z,34.69
2019-03-03T14:12:06.796Z,34.88
2019-03-03T14:14:45.394Z,35.09
2019-03-03T14:17:17.074Z,35.21
2019-03-03T14:19:48.738Z,35.15
2019-03-03T14:22:21.815Z,35.40
2019-03-03T14:24:54.293Z,35.33
2019-03-03T14:27:28.197Z,35.15
2019-03-03T14:30:00.888Z,35.35
2019-03-03T14:32:32.224Z,35.64
2019-03-03T14:35:03.743Z,35.72
2019-03-03T14:37:34.991Z,35.57
2019-03-03T14:40:13.700Z,35.78
2019-03-03T14:42:45.318Z,35.92
2019-03-03T14:45:21.220Z,36.08
2019-03-03T14:47:52.513Z,36.56
2019-03-03T14:50:24.726Z,36.66
2019-03-03T14:53:02.477Z,36.55
2019-03-03T14:55:38.463Z,36.83
2019-03-03T14:58:16.666Z,37.07
2019-03-03T15:00:51.439Z,37.50
2019-03-03T15:03:22.801Z,37.63
2019-03-03T15:06:00.546Z,37.72
2019-03-03T15:08:31.710Z,37.80
2019-03-03T15:11:03.019Z,38.12
2019-03-03T15:13:42.328Z,38.27
2019-03-03T15:16:15.046Z,38.36
2019-03-03T15:18:51.948Z,38.82
2019-03-03T15:21:25.305Z,38.63
2019-03-03T15:23:57.380Z,38.76
2019-03-03T15:26:29.248Z,38.88
2019-03-03T15:29:02.746Z,39.19
2019-03-03T15:31:37.757Z,39.26
2019-03-03T15:34:29.308Z,39.22
2019-03-03T15:37:01.643Z,39.20
2019-03-03T15:39:36.499Z,39.59
2019-03-03T15:42:07.793Z,39.80
2019-03-03T15:44:40.292Z,39.82
2019-03-03T15:47:13.647Z,40.04
2019-03-03T15:49:46.987Z,40.03
2019-03-03T15:52:20.232Z,40.17
2019-03-03T15:54:52.112Z,40.60
2019-03-03T15:57:23.833Z,40.53
2019-03-03T16:00:07.893Z,40.58
2019-03-03T16:02:39.544Z,40.75
2019-03-03T16:05:12.984Z,41.00
2019-03-03T16:07:46.878Z,41.01
2019-03-03T16:10:23.180Z,41.33
2019-03-03T16:12:54.742Z,41.57
2019-03-03T16:15:26.787Z,41.83
2019-03-03T16:17:59.222Z,41.55
2019-03-03T16:20:30.585Z,41.67
2019-03-03T16:23:02.007Z,42.21
2019-03-03T16:25:33.576Z,42.28
2019-03-03T16:28:05.224Z,42.25
2019-03-03T16:30:36.304Z,42.33
2019-03-03T16:33:20.223Z,42.57
2019-03-03T16:35:47.985Z,42.78
2019-03-03T16:38:20.973Z,43.16
2019-03-03T16:40:53.090Z,43.05
2019-03-03T16:43:24.587Z,42.84
2019-03-03T16:45:56.021Z,42.74
2019-03-03T16:48:27.698Z,43.21
2019-03-03T16:50:59.252Z,43.05
2019-03-03T16:53:30.809Z,43.15
2019-03-03T16:56:02.049Z,43.35
2019-03-03T16:58:35.228Z,43.18
2019-03-03T17:01:06.980Z,43.18
2019-03-03T17:03:42.251Z,43.02
2019-03-03T17:06:14.827Z,42.70
2019-03-03T17:08:48.635Z,42.56
2019-03-03T17:11:23.668Z,42.70
2019-03-03T17:13:57.086Z,42.58
2019-03-03T17:16:28.813Z,42.93
2019-03-03T17:19:01.606Z,42.93
2019-03-03T17:21:34.757Z,43.16
2019-03-03T17:24:09.113Z,43.35
2019-03-03T17:26:41.102Z,43.41
2019-03-03T17:29:12.851Z,44.20
2019-03-03T17:31:45.024Z,43.97
2019-03-03T17:34:27.425Z,44.30
2019-03-03T17:37:04.916Z,43.85
2019-03-03T17:39:36.402Z,44.35
2019-03-03T17:42:07.916Z,44.35
2019-03-03T17:44:39.380Z,44.50
2019-03-03T17:47:12.377Z,43.39
2019-03-03T17:49:46.481Z,43.80
2019-03-03T17:52:17.426Z,44.05
2019-03-03T17:54:51.331Z,44.56
2019-03-03T17:57:24.123Z,44.60
2019-03-03T17:59:55.771Z,44.79
2019-03-03T18:02:28.333Z,44.93
2019-03-03T18:05:00.431Z,45.37
2019-03-03T18:07:33.031Z,44.94
2019-03-03T18:10:08.391Z,44.91
2019-03-03T18:12:40.093Z,45.41
2019-03-03T18:15:16.872Z,45.45
2019-03-03T18:17:50.533Z,45.87
2019-03-03T18:20:22.616Z,45.98
2019-03-03T18:22:55.291Z,46.20
2019-03-03T18:25:28.662Z,46.21
2019-03-03T18:28:00.162Z,46.31
2019-03-03T18:30:32.149Z,46.29
2019-03-03T18:33:04.214Z,46.46
2019-03-03T18:35:36.877Z,46.49
2019-03-03T18:38:10.212Z,46.72
2019-03-03T18:40:42.246Z,47.07
2019-03-03T18:43:14.945Z,46.88
2019-03-03T18:45:46.981Z,47.00
2019-03-03T18:48:23.065Z,46.97
2019-03-03T18:50:55.825Z,47.04
2019-03-03T18:53:27.183Z,47.49
2019-03-03T18:55:58.686Z,47.06
2019-03-03T18:58:32.959Z,47.11
2019-03-03T19:01:05.765Z,47.13
2019-03-03T19:03:37.951Z,47.09
2019-03-03T19:06:09.590Z,47.39
2019-03-03T19:08:41.818Z,47.00
2019-03-03T19:11:16.986Z,47.01
2019-03-03T19:13:49.269Z,46.87
2019-03-03T19:16:23.195Z,46.84
2019-03-03T19:18:56.190Z,46.78
2019-03-03T19:21:30.360Z,46.69
2019-03-03T19:24:03.309Z,46.63
2019-03-03T19:26:37.871Z,46.72
2019-03-03T19:29:12.853Z,46.97
2019-03-03T19:34:49.107Z,47.07
2019-03-03T19:37:21.680Z,47.24
2019-03-03T19:39:53.534Z,47.42
2019-03-03T19:42:25.508Z,47.42
2019-03-03T19:44:58.177Z,47.71
2019-03-03T19:47:30.878Z,47.87
2019-03-03T19:50:13.071Z,48.23
2019-03-03T19:52:46.471Z,48.14
2019-03-03T19:55:18.434Z,48.32
2019-03-03T19:57:50.246Z,48.60
2019-03-03T20:00:35.535Z,48.79
2019-03-03T20:03:04.590Z,49.06
2019-03-03T20:05:40.517Z,49.04
2019-03-03T20:08:13.106Z,49.23
2019-03-03T20:10:44.864Z,49.34
2019-03-03T20:13:17.329Z,49.41
2019-03-03T20:15:49.017Z,49.58
2019-03-03T20:18:22.168Z,49.64
2019-03-03T20:20:53.991Z,49.88
2019-03-03T20:23:25.690Z,50.17
2019-03-03T20:25:58.106Z,50.30
2019-03-03T20:28:32.497Z,50.32
2019-03-03T20:31:07.689Z,50.58
2019-03-03T20:33:41.787Z,50.72
2019-03-03T20:36:16.564Z,50.91
2019-03-03T20:38:48.011Z,51.18
2019-03-03T20:41:21.429Z,51.48
2019-03-03T20:44:00.139Z,51.68
2019-03-03T20:46:33.166Z,52.05
2019-03-03T20:49:06.009Z,52.37
2019-03-03T20:51:54.094Z,52.65
2019-03-03T20:54:27.753Z,53.21
2019-03-03T20:57:18.440Z,53.51
2019-03-03T20:59:49.838Z,53.67
2019-03-03T21:02:23.550Z,53.97
2019-03-03T21:04:56.812Z,54.34
2019-03-03T21:07:28.268Z,54.59
2019-03-03T21:09:59.819Z,54.86
2019-03-03T21:12:33.428Z,55.34
2019-03-03T21:15:12.500Z,55.54
2019-03-03T21:17:44.929Z,55.87
2019-03-03T21:20:22.762Z,56.10
2019-03-03T21:22:58.498Z,56.35
2019-03-03T21:25:30.256Z,56.83
2019-03-03T21:28:02.099Z,57.10
2019-03-03T21:30:34.777Z,57.18
2019-03-03T21:33:07.380Z,57.31
2019-03-03T21:35:39.528Z,57.40
2019-03-03T21:38:13.132Z,57.76
2019-03-03T21:40:44.581Z,57.99
2019-03-03T21:43:15.993Z,58.27
2019-03-03T21:45:53.626Z,58.22
2019-03-03T21:48:25.659Z,58.22
2019-03-03T21:51:00.642Z,58.45
2019-03-03T21:53:32.129Z,58.61
2019-03-03T21:56:03.949Z,58.31
2019-03-03T21:58:35.788Z,58.19
2019-03-03T22:01:07.889Z,58.40
2019-03-03T22:03:39.533Z,58.55
2019-03-03T22:06:11.128Z,58.51
2019-03-03T22:08:42.731Z,58.46
2019-03-03T22:11:14.363Z,58.62
2019-03-03T22:13:45.685Z,58.87
2019-03-03T22:16:18.532Z,58.90
2019-03-03T22:18:50.090Z,58.87
2019-03-03T22:21:21.574Z,59.15
2019-03-03T22:23:53.722Z,59.25
2019-03-03T22:26:25.456Z,59.44
2019-03-03T22:28:57.587Z,59.40
2019-03-03T22:31:29.281Z,59.25
2019-03-03T22:34:01.373Z,59.38
2019-03-03T22:36:33.117Z,59.67
2019-03-03T22:39:08.353Z,59.97
2019-03-03T22:41:41.654Z,59.80
2019-03-03T22:44:13.108Z,59.83
2019-03-03T22:46:45.984Z,60.10
2019-03-03T22:49:17.544Z,60.29
2019-03-03T22:51:50.526Z,60.32
2019-03-03T22:54:21.893Z,60.32
2019-03-03T22:56:54.563Z,60.47
2019-03-03T22:59:28.101Z,60.42
2019-03-03T23:02:04.426Z,60.59
2019-03-03T23:04:54.206Z,60.75
2019-03-03T23:07:39.043Z,60.73
2019-03-03T23:10:28.671Z,60.72
2019-03-03T23:13:06.346Z,60.86
2019-03-03T23:15:52.169Z,60.82
2019-03-03T23:18:33.092Z,60.90
2019-03-03T23:21:37.411Z,60.77
2019-03-03T23:24:27.010Z,61.03
2019-03-03T23:26:58.298Z,61.04
2019-03-03T23:29:29.693Z,61.21
2019-03-03T23:32:09.157Z,61.04
2019-03-03T23:34:40.601Z,61.03
2019-03-03T23:37:11.914Z,61.34
2019-03-03T23:39:43.260Z,61.40
2019-03-03T23:42:14.765Z,61.33
2019-03-03T23:44:46.763Z,61.52
2019-03-03T23:47:18.663Z,61.57
2019-03-03T23:49:50.184Z,61.72
2019-03-03T23:52:21.794Z,61.71
2019-03-03T23:54:54.058Z,61.89
2019-03-03T23:57:25.693Z,62.05
2019-03-03T23:59:57.205Z,62.44
